createdAt,value
2019-06-10T00:03:21.112Z,5.23
2019-06-10T00:07:26.128Z,4.70
2019-06-10T00:11:31.532Z,4.90
2019-06-10T00:15:36.591Z,5.20
2019-06-10T00:19:41.469Z,5.40
2019-06-10T00:23:46.430Z,5.20
2019-06-10T00:27:51.334Z,4.70
2019-06-10T00:31:56.182Z,5.50
2019-06-10T00:36:05.148Z,5.73
2019-06-10T00:40:09.998Z,5.90
2019-06-10T00:44:14.835Z,5.97
2019-06-10T00:48:26.026Z,6.70
2019-06-10T00:52:26.457Z,5.20
2019-06-10T00:56:32.099Z,4.90
2019-06-10T01:00:37.064Z,5.80
2019-06-10T01:04:41.929Z,4.50
2019-06-10T01:08:46.966Z,5.73
2019-06-10T01:12:51.821Z,5.87
2019-06-10T01:16:56.840Z,5.17
2019-06-10T01:21:02.070Z,5.50
2019-06-10T01:25:07.254Z,5.50
2019-06-10T01:29:14.304Z,6.67
2019-06-10T01:33:21.239Z,5.70
2019-06-10T01:37:25.834Z,5.80
2019-06-10T01:41:30.901Z,5.73
2019-06-10T01:45:35.797Z,4.90
2019-06-10T01:49:41.210Z,5.00
2019-06-10T01:53:46.412Z,5.93
2019-06-10T01:57:51.821Z,6.27
2019-06-10T02:02:12.711Z,5.53
2019-06-10T02:06:20.422Z,5.13
2019-06-10T02:10:23.566Z,5.40
2019-06-10T02:14:31.553Z,5.37
2019-06-10T02:18:34.990Z,5.20
2019-06-10T02:22:41.142Z,5.20
2019-06-10T02:26:46.200Z,5.83
2019-06-10T02:30:55.485Z,5.53
2019-06-10T02:35:14.278Z,5.77
2019-06-10T02:39:05.800Z,5.60
2019-06-10T02:43:17.572Z,4.90
2019-06-10T02:47:22.715Z,5.10
2019-06-10T02:51:30.769Z,6.20
2019-06-10T02:55:35.141Z,4.87
2019-06-10T02:59:38.756Z,5.10
2019-06-10T03:03:49.182Z,5.70
2019-06-10T03:07:53.116Z,5.33
2019-06-10T03:11:57.060Z,6.03
2019-06-10T03:16:08.796Z,5.70
2019-06-10T03:20:14.064Z,5.60
2019-06-10T03:24:19.180Z,4.87
2019-06-10T03:28:25.260Z,4.73
2019-06-10T03:32:40.068Z,5.20
2019-06-10T03:36:36.781Z,5.20
2019-06-10T03:40:43.401Z,5.03
2019-06-10T03:44:48.594Z,5.87
2019-06-10T03:48:53.558Z,4.40
2019-06-10T03:53:01.156Z,5.33
2019-06-10T03:57:05.037Z,4.83
2019-06-10T04:01:12.118Z,5.17
2019-06-10T04:05:17.470Z,5.80
2019-06-10T04:09:24.226Z,5.40
2019-06-10T04:13:29.318Z,5.70
2019-06-10T04:17:34.222Z,5.20
2019-06-10T04:21:39.223Z,5.40
2019-06-10T04:25:44.663Z,5.40
2019-06-10T04:29:49.522Z,5.27
2019-06-10T04:33:54.473Z,6.10
2019-06-10T04:37:59.336Z,5.27
2019-06-10T04:42:04.225Z,4.77
2019-06-10T04:46:09.494Z,6.23
2019-06-10T04:50:24.805Z,5.70
2019-06-10T04:54:23.472Z,5.00
2019-06-10T04:58:29.125Z,5.63
2019-06-10T05:02:34.681Z,5.60
2019-06-10T05:06:41.981Z,6.50
2019-06-10T05:10:46.315Z,6.20
2019-06-10T05:14:52.668Z,6.70
2019-06-10T05:19:00.282Z,6.40
2019-06-10T05:23:05.081Z,4.90
2019-06-10T05:27:12.472Z,5.07
2019-06-10T05:31:16.975Z,6.07
2019-06-10T05:35:24.187Z,5.80
2019-06-10T05:39:29.201Z,6.03
2019-06-10T05:43:34.864Z,6.80
2019-06-10T05:47:42.506Z,5.90
2019-06-10T05:51:46.689Z,5.50
2019-06-10T05:55:52.944Z,6.07
2019-06-10T05:59:58.097Z,5.97
2019-06-10T06:04:03.336Z,5.87
2019-06-10T06:08:09.043Z,5.10
2019-06-10T06:12:14.503Z,5.17
2019-06-10T06:16:19.390Z,5.03
2019-06-10T06:20:25.061Z,5.60
2019-06-10T06:24:32.740Z,5.70
2019-06-10T06:28:38.184Z,4.70
2019-06-10T06:32:43.763Z,5.33
2019-06-10T06:36:48.899Z,4.77
2019-06-10T06:40:54.094Z,5.10
2019-06-10T06:44:59.062Z,5.33
2019-06-10T06:49:04.143Z,5.27
2019-06-10T06:53:21.335Z,4.80
2019-06-10T06:57:16.623Z,5.00
2019-06-10T07:01:25.174Z,6.00
2019-06-10T07:05:28.361Z,5.17
2019-06-10T07:09:36.185Z,4.83
2019-06-10T07:13:45.899Z,4.83
2019-06-10T07:17:52.662Z,4.67
2019-06-10T07:22:09.512Z,5.10
2019-06-10T07:26:04.267Z,6.10
2019-06-10T07:30:12.490Z,4.73
2019-06-10T07:34:27.802Z,5.40
2019-06-10T07:38:55.800Z,4.60
2019-06-10T07:43:24.614Z,4.73
2019-06-10T07:47:35.260Z,5.50
2019-06-10T07:51:46.313Z,5.20
2019-06-10T07:55:54.500Z,5.00
2019-06-10T08:00:03.253Z,4.33
2019-06-10T08:04:08.254Z,6.00
2019-06-10T08:08:14.440Z,4.97
2019-06-10T08:12:19.345Z,4.77
2019-06-10T08:16:27.907Z,5.13
2019-06-10T08:20:48.235Z,4.80
2019-06-10T08:25:36.721Z,5.10
2019-06-10T08:29:47.720Z,5.47
2019-06-10T08:34:35.932Z,5.03
2019-06-10T08:38:58.153Z,5.30
2019-06-10T08:43:44.710Z,5.87
2019-06-10T08:48:03.413Z,4.97
2019-06-10T08:53:07.352Z,4.70
2019-06-10T08:57:50.989Z,4.70
2019-06-10T09:02:08.579Z,4.80
2019-06-10T09:06:53.568Z,5.83
2019-06-10T09:11:54.466Z,5.10
2019-06-10T09:16:27.569Z,5.60
2019-06-10T09:21:53.349Z,4.90
2019-06-10T09:26:49.569Z,4.50
2019-06-10T09:31:39.467Z,4.57
2019-06-10T09:36:08.581Z,4.50
2019-06-10T09:41:36.534Z,4.17
2019-06-10T09:46:08.709Z,5.13
2019-06-10T09:51:32.330Z,5.23
2019-06-10T09:55:48.025Z,5.00
2019-06-10T10:00:06.330Z,4.57
2019-06-10T10:04:57.863Z,5.03
2019-06-10T10:09:44.345Z,5.90
2019-06-10T10:19:12.890Z,5.77
2019-06-10T10:24:06.236Z,5.53
2019-06-10T10:28:42.364Z,6.20
2019-06-10T10:32:49.158Z,5.60
2019-06-10T10:36:56.966Z,5.93
2019-06-10T10:41:04.208Z,6.87
2019-06-10T10:45:08.050Z,6.00
2019-06-10T10:49:14.249Z,6.10
2019-06-10T10:53:19.279Z,6.50
2019-06-10T10:57:25.104Z,5.50
2019-06-10T11:01:30.127Z,6.40
2019-06-10T11:05:36.553Z,6.60
2019-06-10T11:09:42.408Z,6.60
2019-06-10T11:13:49.382Z,7.70
2019-06-10T11:17:56.376Z,5.60
2019-06-10T11:22:02.789Z,7.63
2019-06-10T11:26:17.567Z,6.20
2019-06-10T11:30:23.040Z,6.93
2019-06-10T11:34:28.949Z,6.57
2019-06-10T11:38:38.477Z,6.30
2019-06-10T11:42:43.722Z,8.80
2019-06-10T11:46:49.172Z,7.80
2019-06-10T11:50:58.226Z,6.50
2019-06-10T11:55:11.621Z,8.27
2019-06-10T11:59:09.625Z,7.17
2019-06-10T12:03:15.458Z,6.53
2019-06-10T12:07:23.217Z,6.30
2019-06-10T12:11:28.616Z,7.70
2019-06-10T12:20:29.551Z,6.80
2019-06-10T12:24:35.056Z,6.57
2019-06-10T12:28:42.903Z,6.90
2019-06-10T12:32:47.093Z,8.17
2019-06-10T12:36:56.280Z,7.47
2019-06-10T12:41:07.443Z,7.10
2019-06-10T12:45:08.848Z,7.00
2019-06-10T12:53:44.871Z,6.97
2019-06-10T12:57:53.298Z,8.23
2019-06-10T13:02:11.412Z,7.80
2019-06-10T13:06:29.806Z,6.57
2019-06-10T13:10:42.716Z,5.77
2019-06-10T13:14:46.707Z,6.10
2019-06-10T13:18:52.517Z,6.00
2019-06-10T13:22:58.221Z,6.73
2019-06-10T13:27:05.059Z,5.50
2019-06-10T13:31:10.336Z,5.90
2019-06-10T13:35:16.147Z,6.50
2019-06-10T13:39:22.319Z,6.80
2019-06-10T13:43:27.487Z,6.83
2019-06-10T13:47:33.169Z,6.40
2019-06-10T13:51:38.376Z,5.93
2019-06-10T13:55:43.698Z,5.73
2019-06-10T13:59:51.895Z,6.37
2019-06-10T14:03:56.392Z,6.73
2019-06-10T14:08:06.851Z,6.87
2019-06-10T14:12:17.322Z,6.33
2019-06-10T14:16:23.234Z,6.10
2019-06-10T14:20:27.555Z,5.93
2019-06-10T14:24:35.280Z,6.13
2019-06-10T14:28:41.750Z,6.23
2019-06-10T14:32:46.703Z,5.87
2019-06-10T14:36:52.541Z,6.17
2019-06-10T14:41:03.414Z,6.00
2019-06-10T14:45:08.703Z,6.20
2019-06-10T14:49:15.657Z,6.03
2019-06-10T14:53:22.935Z,6.13
2019-06-10T14:57:33.308Z,5.47
2019-06-10T15:01:37.478Z,6.13
2019-06-10T15:05:43.351Z,6.10
2019-06-10T15:09:48.428Z,5.80
2019-06-10T15:13:53.465Z,6.17
2019-06-10T15:17:58.440Z,5.93
2019-06-10T15:22:03.387Z,6.87
2019-06-10T15:26:08.414Z,5.80
2019-06-10T15:30:22.635Z,5.27
2019-06-10T15:34:20.667Z,5.80
2019-06-10T15:38:25.690Z,5.60
2019-06-10T15:42:33.167Z,5.10
2019-06-10T15:46:37.465Z,6.33
2019-06-10T15:50:42.959Z,5.60
2019-06-10T15:54:47.937Z,6.70
2019-06-10T15:58:53.132Z,5.43
2019-06-10T16:03:02.482Z,5.60
2019-06-10T16:07:08.614Z,5.70
2019-06-10T16:11:20.008Z,5.43
2019-06-10T16:15:26.544Z,5.60
2019-06-10T16:19:32.850Z,6.50
2019-06-10T16:23:37.816Z,5.90
2019-06-10T16:27:48.634Z,6.00
2019-06-10T16:31:49.306Z,6.60
2019-06-10T16:35:58.210Z,6.50
2019-06-10T16:40:03.452Z,7.03
2019-06-10T16:44:08.415Z,8.40
2019-06-10T16:48:13.843Z,6.33
2019-06-10T16:52:19.491Z,6.90
2019-06-10T16:56:26.013Z,8.17
2019-06-10T17:00:34.522Z,7.43
2019-06-10T17:04:37.879Z,7.07
2019-06-10T17:08:42.851Z,7.07
2019-06-10T17:12:59.068Z,7.00
2019-06-10T17:17:04.219Z,8.00
2019-06-10T17:21:09.692Z,6.00
2019-06-10T17:25:15.532Z,6.97
2019-06-10T17:29:22.787Z,6.80
2019-06-10T17:33:28.285Z,6.70
2019-06-10T17:37:33.851Z,8.00
2019-06-10T17:41:39.480Z,7.67
2019-06-10T17:45:44.542Z,6.73
2019-06-10T17:49:49.474Z,6.80
2019-06-10T17:53:54.349Z,6.90
2019-06-10T17:57:59.240Z,6.40
2019-06-10T18:02:04.413Z,6.77
2019-06-10T18:06:09.259Z,6.60
2019-06-10T18:10:14.967Z,7.73
2019-06-10T18:14:20.173Z,6.80
2019-06-10T18:18:26.226Z,7.83
2019-06-10T18:22:33.594Z,7.30
2019-06-10T18:26:38.127Z,7.40
2019-06-10T18:30:43.572Z,7.93
2019-06-10T18:34:48.442Z,8.30
2019-06-10T18:38:53.330Z,9.37
2019-06-10T18:42:58.319Z,8.93
2019-06-10T18:47:03.338Z,7.70
2019-06-10T18:51:08.199Z,8.50
2019-06-10T18:55:14.043Z,8.37
2019-06-10T18:59:21.251Z,7.60
2019-06-10T19:03:25.583Z,8.07
2019-06-10T19:07:31.283Z,7.50
2019-06-10T19:11:38.441Z,8.27
2019-06-10T19:15:43.751Z,9.17
2019-06-10T19:19:48.793Z,8.00
2019-06-10T19:23:53.663Z,8.27
2019-06-10T19:27:58.718Z,8.67
2019-06-10T19:32:04.819Z,8.40
2019-06-10T19:36:12.536Z,7.93
2019-06-10T19:40:17.421Z,8.73
2019-06-10T19:44:23.456Z,8.93
2019-06-10T19:52:52.014Z,8.27
2019-06-10T19:56:57.642Z,7.50
2019-06-10T20:01:03.163Z,7.97
2019-06-10T20:05:09.072Z,7.90
2019-06-10T20:09:14.355Z,8.10
2019-06-10T20:13:19.422Z,8.03
2019-06-10T20:17:24.759Z,8.00
2019-06-10T20:21:32.843Z,7.57
2019-06-10T20:25:38.507Z,7.90
2019-06-10T20:29:45.658Z,7.03
2019-06-10T20:33:53.439Z,7.17
2019-06-10T20:37:58.612Z,8.37
2019-06-10T20:42:03.700Z,7.30
2019-06-10T20:46:08.741Z,7.90
2019-06-10T20:50:14.498Z,8.57
2019-06-10T20:54:19.779Z,7.30
2019-06-10T20:58:25.480Z,7.50
2019-06-10T21:02:32.453Z,8.47
2019-06-10T21:06:39.188Z,8.07
2019-06-10T21:10:46.351Z,7.57
2019-06-10T21:14:52.975Z,7.70
2019-06-10T21:18:57.425Z,7.70
2019-06-10T21:27:32.837Z,8.20
2019-06-10T21:31:37.907Z,9.10
2019-06-10T21:35:45.669Z,8.07
2019-06-10T21:52:44.091Z,8.07
2019-06-10T21:56:48.902Z,9.73
2019-06-10T22:01:08.316Z,9.90
2019-06-10T22:05:03.304Z,8.87
2019-06-10T22:13:48.086Z,7.10
2019-06-10T22:17:54.798Z,7.70
2019-06-10T22:21:59.787Z,8.53
2019-06-10T22:26:07.871Z,9.07
2019-06-10T22:30:14.272Z,8.40
2019-06-10T22:34:19.173Z,8.43
2019-06-10T22:38:24.220Z,7.30
2019-06-10T22:42:29.235Z,8.80
2019-06-10T22:46:34.241Z,7.73
2019-06-10T22:50:39.421Z,8.40
2019-06-10T22:54:44.293Z,8.80
2019-06-10T22:58:49.749Z,8.00
2019-06-10T23:02:56.472Z,8.40
2019-06-10T23:07:03.075Z,8.07
2019-06-10T23:11:08.195Z,8.40
2019-06-10T23:15:13.548Z,7.80
2019-06-10T23:19:18.444Z,7.23
2019-06-10T23:23:23.524Z,8.50
2019-06-10T23:27:28.499Z,8.23
2019-06-10T23:31:48.317Z,8.30
2019-06-10T23:35:42.676Z,8.63
2019-06-10T23:39:46.710Z,8.13
2019-06-10T23:43:52.999Z,8.33
2019-06-10T23:47:59.229Z,8.60
2019-06-10T23:52:05.499Z,8.60
2019-06-10T23:56:12.674Z,9.50
